Time;durP1;ratioP1;P1;durP2;ratioP2;P2;SDS_P1;SDS_P2;PMS_P1;PMS_P2;Temp;Humidity;BMP_temperature;BMP_pressure;BME280_temperature;BME280_humidity;BME280_pressure;Samples;Min_cycle;Max_cycle;Signal;HPM_P1;HPM_P2
2022/04/13 00:04:03;;;;;;;1.27;0.83;;;;;;;;;;20907211;28;20259;-71
2022/04/13 00:14:05;;;;;;;1.83;0.90;;;;;;;;;;20964636;23;20252;-66
2022/04/13 00:24:07;;;;;;;1.73;0.90;;;16.70;99.90;;;;;;20845589;28;20271;-66
2022/04/13 00:34:09;;;;;;;1.10;0.70;;;;;;;;;;20862213;28;20276;-66
2022/04/13 00:44:11;;;;;;;1.83;0.87;;;16.40;99.90;;;;;;20862056;28;20681;-67
2022/04/13 00:54:16;;;;;;;1.37;0.80;;;16.40;99.90;;;;;;20844340;28;20186;-67
2022/04/13 01:04:18;;;;;;;0.97;0.70;;;;;;;;;;20794550;28;20237;-66
2022/04/13 01:14:19;;;;;;;1.13;0.73;;;;;;;;;;20794011;28;20202;-66
2022/04/13 01:24:21;;;;;;;1.53;0.90;;;15.90;99.90;;;;;;20792620;28;20689;-66
2022/04/13 01:34:23;;;;;;;1.90;0.93;;;;;;;;;;20776097;28;20190;-66
2022/04/13 01:44:25;;;;;;;1.00;0.77;;;;;;;;;;20791832;28;20280;-66
2022/04/13 01:54:27;;;;;;;1.10;0.80;;;;;;;;;;20803283;28;20199;-67
2022/04/13 02:04:29;;;;;;;1.00;0.70;;;;;;;;;;20773965;28;20218;-67
2022/04/13 02:14:31;;;;;;;1.73;0.90;;;;;;;;;;20789720;28;20234;-66
2022/04/13 02:24:34;;;;;;;1.53;0.70;;;;;;;;;;20799667;28;20294;-66
2022/04/13 02:34:37;;;;;;;0.93;0.70;;;;;;;;;;20798471;28;20218;-66
2022/04/13 02:44:38;;;;;;;0.97;0.60;;;;;;;;;;20773077;28;20222;-66
2022/04/13 02:54:40;;;;;;;1.50;0.90;;;;;;;;;;20772578;28;20693;-66
2022/04/13 03:04:43;;;;;;;1.50;0.90;;;;;;;;;;20772157;28;20226;-66
2022/04/13 03:14:45;;;;;;;1.37;0.90;;;;;;;;;;20777075;28;20287;-66
2022/04/13 03:24:47;;;;;;;0.90;0.60;;;;;;;;;;20785805;28;20254;-66
2022/04/13 03:34:48;;;;;;;1.00;0.80;;;;;;;;;;20824855;28;20214;-66
2022/04/13 03:44:50;;;;;;;2.47;1.20;;;;;;;;;;20856545;28;20218;-67
2022/04/13 03:54:53;;;;;;;1.27;0.80;;;;;;;;;;20809257;28;20223;-67
2022/04/13 04:04:54;;;;;;;2.00;0.97;;;;;;;;;;20799536;28;20218;-67
2022/04/13 04:15:03;;;;;;;1.77;0.90;;;;;;;;;;20782071;28;20223;-66
2022/04/13 04:25:07;;;;;;;1.63;0.90;;;14.40;99.90;;;;;;20827846;28;20234;-67
2022/04/13 04:35:10;;;;;;;1.00;0.70;;;;;;;;;;20792741;28;20207;-67
2022/04/13 04:45:13;;;;;;;1.83;0.97;;;;;;;;;;20795870;28;20222;-67
2022/04/13 04:55:16;;;;;;;2.53;1.00;;;14.10;99.90;;;;;;20800213;28;20211;-66
2022/04/13 05:05:19;;;;;;;1.20;0.80;;;;;;;;;;20825818;28;20217;-66
2022/04/13 05:15:21;;;;;;;5.47;1.17;;;;;;;;;;20859236;28;20276;-66
2022/04/13 05:25:23;;;;;;;1.27;0.90;;;;;;;;;;20858933;28;20271;-66
2022/04/13 05:35:28;;;;;;;1.93;1.27;;;14.20;99.90;;;;;;20857382;28;20210;-66
2022/04/13 05:45:30;;;;;;;7.10;1.20;;;;;;;;;;20838496;28;20709;-66
2022/04/13 05:55:32;;;;;;;1.53;1.20;;;;;;;;;;20809342;28;20573;-66
2022/04/13 06:05:34;;;;;;;3.63;2.07;;;;;;;;;;20848682;28;20283;-66
2022/04/13 06:15:37;;;;;;;6.80;4.97;;;;;;;;;;20804835;28;20249;-67
2022/04/13 06:25:39;;;;;;;4.20;2.10;;;;;;;;;;20792037;28;20770;-67
2022/04/13 06:35:41;;;;;;;6.93;2.33;;;;;;;;;;20805400;28;20579;-67
2022/04/13 06:45:42;;;;;;;2.47;1.53;;;;;;;;;;20793706;28;20276;-67
2022/04/13 06:55:45;;;;;;;2.13;1.37;;;14.70;99.90;;;;;;20838196;28;20215;-67
2022/04/13 07:05:47;;;;;;;1.50;1.13;;;;;;;;;;20831749;28;20222;-67
2022/04/13 07:15:51;;;;;;;2.10;1.00;;;;;;;;;;20783827;28;20633;-67
2022/04/13 07:25:54;;;;;;;2.50;1.50;;;;;;;;;;20783480;28;20223;-67
2022/04/13 07:35:55;;;;;;;5.97;1.83;;;;;;;;;;20779329;28;20210;-67
2022/04/13 07:45:57;;;;;;;4.10;1.70;;;;;;;;;;20778982;28;20227;-66
2022/04/13 07:56:00;;;;;;;1.93;1.50;;;;;;;;;;20825271;28;20288;-67
2022/04/13 08:06:02;;;;;;;4.10;1.60;;;;;;;;;;20760935;28;20222;-67
2022/04/13 08:16:04;;;;;;;2.77;1.63;;;15.70;99.90;;;;;;20776446;28;20249;-67
2022/04/13 08:26:07;;;;;;;2.20;1.70;;;;;;;;;;20792011;28;20238;-67
2022/04/13 08:36:08;;;;;;;3.27;1.40;;;;;;;;;;20775227;28;20273;-67
2022/04/13 08:46:15;;;;;;;2.00;1.20;;;16.50;99.90;;;;;;20790286;28;20284;-67
2022/04/13 08:56:19;;;;;;;3.23;1.43;;;;;;;;;;20815225;28;20587;-67
2022/04/13 09:06:22;;;;;;;1.77;1.10;;;;;;;;;;20816154;28;20211;-67
2022/04/13 09:16:24;;;;;;;1.40;0.93;;;18.00;99.90;;;;;;20774944;28;20272;-67
2022/04/13 09:26:26;;;;;;;1.53;1.00;;;;;;;;;;20790001;28;20276;-67
2022/04/13 09:36:28;;;;;;;1.70;0.80;;;;;;;;;;20843596;28;20630;-67
2022/04/13 09:46:30;;;;;;;1.63;0.90;;;18.80;99.90;;;;;;20855935;28;20217;-67
2022/04/13 09:56:32;;;;;;;1.50;0.77;;;;;;;;;;20850157;28;20214;-67
2022/04/13 10:06:35;;;;;;;1.97;0.87;;;;;;;;;;20798947;28;20979;-67
2022/04/13 10:16:37;;;;;;;1.30;0.70;;;;;;;;;;20772259;28;20231;-67
2022/04/13 10:26:42;;;;;;;2.53;1.13;;;;;;;;;;20787236;28;20291;-67
2022/04/13 10:36:44;;;;;;;3.40;1.17;;;;;;;;;;20804615;28;20204;-67
2022/04/13 10:46:48;;;;;;;3.63;1.20;;;;;;;;;;20787627;28;20226;-67
2022/04/13 10:56:56;;;;;;;2.80;1.33;;;21.10;99.90;;;;;;20790448;28;20606;-67
2022/04/13 11:06:58;;;;;;;1.87;0.93;;;21.60;99.90;;;;;;20802962;28;20591;-67
2022/04/13 11:17:06;;;;;;;3.27;1.10;;;21.80;99.90;;;;;;20789533;28;20282;-67
2022/04/13 11:27:10;;;;;;;2.30;1.20;;;21.80;99.90;;;;;;20842874;28;20228;-67
2022/04/13 11:37:15;;;;;;;2.00;1.30;;;22.20;99.90;;;;;;20822378;28;20262;-67
2022/04/13 11:47:18;;;;;;;3.80;1.60;;;22.50;99.90;;;;;;20778214;28;20700;-67
2022/04/13 11:57:20;;;;;;;2.77;1.50;;;;;;;;;;20800289;28;20206;-68
2022/04/13 12:07:22;;;;;;;4.23;1.50;;;;;;;;;;20809390;28;20225;-67
2022/04/13 12:17:24;;;;;;;4.23;2.43;;;;;;;;;;20805859;28;20559;-67
2022/04/13 12:27:26;;;;;;;6.73;3.00;;;;;;;;;;20847644;28;20221;-67
2022/04/13 12:37:28;;;;;;;4.30;3.17;;;;;;;;;;20862560;28;20272;-67
2022/04/13 12:47:30;;;;;;;6.20;3.40;;;;;;;;;;20846667;28;20785;-67
2022/04/13 12:57:32;;;;;;;4.70;2.13;;;23.60;99.90;;;;;;20858158;28;20264;-67
2022/04/13 13:07:36;;;;;;;4.20;1.63;;;23.70;99.90;;;;;;20842898;28;20268;-67
2022/04/13 13:17:42;;;;;;;3.70;1.73;;;;;;;;;;20858358;28;20209;-67
2022/04/13 13:27:58;;;;;;;0.90;0.60;;;23.90;99.90;;;;;;20857942;28;20252;-67
2022/04/13 13:38:11;;;;;;;2.20;0.70;;;;;;;;;;20873087;28;20228;-67
2022/04/13 13:48:26;;;;;;;1.60;0.60;;;24.10;99.90;;;;;;20871506;28;20295;-68
2022/04/13 13:58:28;;;;;;;1.48;0.70;;;;;;;;;;20854951;28;20577;-67
2022/04/13 14:08:30;;;;;;;1.38;0.80;;;;;;;;;;20807873;28;20227;-67
2022/04/13 14:18:32;;;;;;;1.30;0.70;;;;;;;;;;20788468;28;20211;-67
2022/04/13 14:28:34;;;;;;;2.70;1.02;;;;;;;;;;20789042;28;20293;-67
2022/04/13 14:38:37;;;;;;;3.20;0.95;;;23.80;99.90;;;;;;20787639;28;20284;-66
2022/04/13 14:48:39;;;;;;;4.22;0.70;;;;;;;;;;20771430;28;20219;-66
2022/04/13 14:58:41;;;;;;;2.13;0.73;;;;;;;;;;20826701;28;20554;-66
2022/04/13 15:08:43;;;;;;;5.53;1.10;;;;;;;;;;20849967;28;20214;-66
2022/04/13 15:18:46;;;;;;;4.65;0.80;;;;;;;;;;20839532;28;20246;-67
2022/04/13 15:28:48;;;;;;;2.83;0.60;;;;;;;;;;20849311;28;20694;-67
2022/04/13 15:38:50;;;;;;;0.93;0.68;;;;;;;;;;20866124;28;20211;-67
2022/04/13 15:48:52;;;;;;;1.92;0.70;;;;;;;;;;20881597;28;20219;-67
2022/04/13 15:58:53;;;;;;;5.10;0.50;;;;;;;;;;20832395;28;20219;-67
2022/04/13 16:08:55;;;;;;;1.23;0.63;;;;;;;;;;20807036;28;20273;-67
2022/04/13 16:18:57;;;;;;;1.52;0.52;;;;;;;;;;20780385;28;20242;-67
2022/04/13 16:29:00;;;;;;;0.77;0.50;;;;;;;;;;20802694;28;20672;-66
2022/04/13 16:39:02;;;;;;;1.35;0.50;;;;;;;;;;20788072;28;20220;-66
2022/04/13 16:49:04;;;;;;;1.55;0.60;;;;;;;;;;20810133;28;20218;-66
2022/04/13 16:59:05;;;;;;;1.52;0.63;;;;;;;;;;20804118;28;20217;-67
2022/04/13 17:09:07;;;;;;;2.03;0.70;;;;;;;;;;20811933;28;20218;-66
2022/04/13 17:19:09;;;;;;;2.00;0.80;;;;;;;;;;20804080;28;20624;-66
2022/04/13 17:29:13;;;;;;;2.47;0.85;;;;;;;;;;20827820;28;20226;-67
2022/04/13 17:39:16;;;;;;;6.22;1.30;;;;;;;;;;20788010;28;20218;-66
2022/04/13 17:49:19;;;;;;;3.90;0.80;;;;;;;;;;20819926;28;20227;-67
2022/04/13 17:59:23;;;;;;;1.70;0.83;;;;;;;;;;20790687;28;20260;-66
2022/04/13 18:09:25;;;;;;;4.40;2.27;;;;;;;;;;20815598;28;20287;-66
2022/04/13 18:19:27;;;;;;;6.13;2.17;;;;;;;;;;20823350;28;20228;-66
2022/04/13 18:29:29;;;;;;;13.73;2.17;;;;;;;;;;20830557;28;20323;-66
2022/04/13 18:39:31;;;;;;;4.17;1.60;;;;;;;;;;20794336;28;20280;-67
2022/04/13 18:49:33;;;;;;;3.93;1.10;;;;;;;;;;20813437;28;20778;-67
2022/04/13 18:59:36;;;;;;;5.30;1.07;;;21.00;99.90;;;;;;20836779;28;20225;-67
2022/04/13 19:09:38;;;;;;;2.97;0.70;;;;;;;;;;20829015;28;20283;-67
2022/04/13 19:19:40;;;;;;;2.47;0.93;;;;;;;;;;20810703;28;20289;-67
2022/04/13 19:29:42;;;;;;;2.83;0.90;;;;;;;;;;20802101;28;20715;-67
2022/04/13 19:39:45;;;;;;;1.40;0.70;;;;;;;;;;20822541;28;20225;-67
2022/04/13 19:49:47;;;;;;;3.60;0.80;;;;;;;;;;20816372;28;20295;-67
2022/04/13 19:59:49;;;;;;;1.13;0.67;;;;;;;;;;20796058;28;20225;-67
2022/04/13 20:09:51;;;;;;;1.67;0.80;;;;;;;;;;20776958;28;20220;-67
2022/04/13 20:19:53;;;;;;;1.27;0.90;;;20.00;99.90;;;;;;20787255;28;20233;-67
2022/04/13 20:29:54;;;;;;;1.87;0.80;;;;;;;;;;20791388;28;20287;-67
2022/04/13 20:39:57;;;;;;;1.27;0.70;;;;;;;;;;20790299;28;20303;-67
2022/04/13 20:50:01;;;;;;;1.80;0.93;;;19.80;99.90;;;;;;20790308;28;20221;-67
2022/04/13 21:00:04;;;;;;;2.73;1.03;;;;;;;;;;20794577;28;20673;-67
2022/04/13 21:10:07;;;;;;;4.73;0.90;;;;;;;;;;20804840;28;20221;-66
2022/04/13 21:20:09;;;;;;;1.47;1.00;;;;;;;;;;20770657;28;20209;-67
2022/04/13 21:30:11;;;;;;;2.23;0.80;;;;;;;;;;20788210;28;20343;-66
2022/04/13 21:40:13;;;;;;;4.43;0.80;;;;;;;;;;20796450;28;20269;-66
2022/04/13 21:50:16;;;;;;;3.20;1.00;;;;;;;;;;20803445;28;20225;-66
2022/04/13 22:00:54;;;;;;;3.00;1.00;;;19.10;99.90;;;;;;20791065;28;20586;-68
2022/04/13 22:10:56;;;;;;;1.40;0.83;;;;;;;;;;20807015;28;20289;-66
2022/04/13 22:20:57;;;;;;;2.83;1.33;;;;;;;;;;20789148;28;20227;-66
2022/04/13 22:31:03;;;;;;;2.27;1.20;;;;;;;;;;20789795;28;20248;-66
2022/04/13 22:41:05;;;;;;;2.43;1.13;;;;;;;;;;20789391;28;20748;-66
2022/04/13 22:51:06;;;;;;;2.43;1.30;;;;;;;;;;20772676;28;20276;-66
2022/04/13 23:01:08;;;;;;;2.63;1.33;;;;;;;;;;20788668;28;20273;-66
2022/04/13 23:11:10;;;;;;;3.80;1.60;;;;;;;;;;20788396;28;20222;-66
2022/04/13 23:21:12;;;;;;;2.07;1.30;;;;;;;;;;20787328;28;20215;-66
2022/04/13 23:31:14;;;;;;;3.87;1.30;;;;;;;;;;20822671;28;20272;-66
2022/04/13 23:41:16;;;;;;;2.90;1.70;;;;;;;;;;20827409;28;20206;-66
2022/04/13 23:51:17;;;;;;;4.00;1.70;;;;;;;;;;20853778;28;20221;-66
